This is the latest recevied weather packets stored in our database for station/object kc7mrq. If no packets are shown the sender has not sent any weather packets the latest 10 day(s).
| Time | Temp. | Humidity | Pressure | Rain* | Wind** | Luminosity | Snow |
|---|---|---|---|---|---|---|---|
| 1778018409 | 5.56° C | 47% | 1017.1 hPa | 0 mm | - | - | - |
| 1778017509 | 6.67° C | 45% | 1017.1 hPa | 0 mm | - | - | - |
| 1778009459 | 5.56° C | 49% | 1017.1 hPa | 0 mm | - | - | - |
| 1778008558 | 5.56° C | 49% | 1017.2 hPa | 0 mm | - | - | - |
| 1778000448 | 3.89° C | 52% | 1017.2 hPa | 0 mm | - | - | - |
| 1777999605 | 3.89° C | 51% | 1017.1 hPa | 0 mm | - | - | - |
| 1777998643 | 3.89° C | 52% | 1017.2 hPa | 0 mm | - | - | - |
| 1777996840 | 3.33° C | 51% | 1017.1 hPa | 0 mm | - | - | - |
| 1777992332 | 2.22° C | 55% | 1017.2 hPa | 0 mm | - | - | - |
| 1777987826 | 0.56° C | 67% | 1016.6 hPa | 0 mm | - | - | - |
| 1777971652 | -0.56° C | 66% | 1015.3 hPa | 0 mm | - | - | - |
| 1777968051 | 0° C | 67% | 1015.4 hPa | 0 mm | - | - | - |
| 1777966246 | 0.56° C | 66% | 1015.3 hPa | 0 mm | - | - | - |
| 1777959923 | 2.22° C | 57% | 1015.2 hPa | 0 mm | - | - | - |
| 1777953612 | 4.44° C | 52% | 1014.5 hPa | 0 mm | - | - | - |
| 1777950903 | 5° C | 55% | 1013.7 hPa | 0 mm | - | - | - |
| 1777947355 | 5.56° C | 60% | 1012.6 hPa | 0 mm | - | - | - |
| 1777946463 | 6.11° C | 59% | 1012.5 hPa | 0 mm | - | - | - |
| 1777936542 | 9.44° C | 45% | 1010.6 hPa | 0 mm | - | - | - |
| 1777933833 | 9.44° C | 45% | 1010.3 hPa | 0 mm | - | - | - |
| 1777932933 | 8.89° C | 46% | 1010.2 hPa | 0 mm | - | - | - |
| 1777923025 | 8.33° C | 53% | 1010.1 hPa | 0 mm | - | - | - |
| 1777921225 | 8.89° C | 50% | 1010 hPa | 0 mm | - | - | - |
| 1777911317 | 7.22° C | 53% | 1010.3 hPa | 0 mm | - | - | - |
| 1777899607 | 4.44° C | 62% | 1010.2 hPa | 0 mm | - | - | - |
* Rain latest hour (hover to see other rain measurements)
** Current wind speed in m/s (hover to see current wind gust speed)